Time;durP1;ratioP1;P1;durP2;ratioP2;P2;SDS_P1;SDS_P2;PMS_P1;PMS_P2;Temp;Humidity;BMP_temperature;BMP_pressure;BME280_temperature;BME280_humidity;BME280_pressure;Samples;Min_cycle;Max_cycle;Signal;HPM_P1;HPM_P2
2021/12/14 00:01:24;;;;;;;5.17;3.90;;;-2.10;99.90;;;;;;5016614;28;20181;-73
2021/12/14 00:03:54;;;;;;;5.27;4.00;;;-1.60;99.90;;;;;;5017436;28;20169;-67
2021/12/14 00:06:21;;;;;;;5.20;4.77;;;-1.30;99.90;;;;;;5017164;28;20176;-68
2021/12/14 00:08:54;;;;;;;3.97;3.60;;;-1.60;99.90;;;;;;5017393;28;20174;-69
2021/12/14 00:16:46;;;;;;;3.80;3.00;;;-2.30;99.90;;;;;;5017160;28;20197;-67
2021/12/14 00:19:12;;;;;;;3.70;3.33;;;-2.00;99.90;;;;;;5016993;28;20169;-70
2021/12/14 00:21:42;;;;;;;5.20;3.23;;;-2.00;99.90;;;;;;5017214;28;20223;-73
2021/12/14 00:24:14;;;;;;;4.60;3.93;;;-2.60;99.90;;;;;;5016035;28;20180;-67
2021/12/14 00:26:47;;;;;;;2.83;2.63;;;-2.90;99.90;;;;;;5017171;28;20208;-68
2021/12/14 00:29:20;;;;;;;3.47;2.70;;;-2.50;99.90;;;;;;5016993;28;20652;-68
2021/12/14 00:31:47;;;;;;;4.33;3.17;;;-2.10;99.90;;;;;;5016061;28;20461;-69
2021/12/14 00:34:22;;;;;;;3.50;3.20;;;-1.80;99.90;;;;;;5016690;28;20256;-71
2021/12/14 00:36:49;;;;;;;3.43;2.83;;;-2.10;99.90;;;;;;5016759;28;20201;-67
2021/12/14 00:39:15;;;;;;;2.57;2.37;;;-1.80;99.90;;;;;;5016849;28;20485;-67
2021/12/14 00:41:44;;;;;;;3.57;3.27;;;-1.80;99.90;;;;;;5016715;28;20185;-68
2021/12/14 00:44:11;;;;;;;3.53;3.30;;;-2.20;99.90;;;;;;5016725;28;20182;-67
2021/12/14 00:46:37;;;;;;;3.83;3.50;;;-2.40;99.90;;;;;;5015537;28;20267;-68
2021/12/14 00:49:05;;;;;;;3.93;3.10;;;-3.30;99.90;;;;;;5016445;28;20189;-67
2021/12/14 00:51:31;;;;;;;3.43;3.20;;;-3.50;99.90;;;;;;5016639;28;20173;-67
2021/12/14 00:54:00;;;;;;;3.97;3.03;;;-3.60;99.90;;;;;;5016806;28;20174;-70
2021/12/14 00:56:26;;;;;;;4.33;3.13;;;-2.90;99.90;;;;;;5015411;28;20593;-68
2021/12/14 00:58:52;;;;;;;3.07;2.80;;;-2.20;99.90;;;;;;5016564;28;20162;-67
2021/12/14 01:01:24;;;;;;;5.07;3.23;;;-2.30;99.90;;;;;;5016524;28;20161;-67
2021/12/14 01:03:53;;;;;;;3.43;2.83;;;-3.00;99.90;;;;;;5014878;28;20176;-67
2021/12/14 01:06:21;;;;;;;3.40;3.10;;;-2.50;99.90;;;;;;5016267;28;20602;-67
2021/12/14 01:08:49;;;;;;;3.47;3.10;;;-2.90;99.90;;;;;;5016226;28;20184;-67
2021/12/14 01:11:31;;;;;;;5.73;3.30;;;-3.50;99.90;;;;;;5016552;28;20473;-73
2021/12/14 01:14:05;;;;;;;2.90;2.70;;;-2.80;99.90;;;;;;5016470;28;20183;-69
2021/12/14 01:16:54;;;;;;;5.00;4.00;;;-3.50;99.90;;;;;;5016066;28;20259;-75
2021/12/14 01:19:27;;;;;;;3.87;3.50;;;-3.40;99.90;;;;;;5016337;28;20189;-82
2021/12/14 01:22:32;;;;;;;3.97;3.57;;;-3.20;99.90;;;;;;5016101;28;20583;-74
2021/12/14 01:25:10;;;;;;;5.23;4.70;;;-2.50;99.90;;;;;;5016208;28;20184;-70
2021/12/14 01:27:47;;;;;;;4.07;3.67;;;-2.20;99.90;;;;;;5016090;28;20231;-78
2021/12/14 01:30:36;;;;;;;4.07;3.77;;;-1.90;99.90;;;;;;5016367;28;20177;-73
2021/12/14 01:33:06;;;;;;;3.60;3.30;;;-2.60;99.90;;;;;;5016019;28;20267;-78
2021/12/14 01:35:37;;;;;;;4.57;3.97;;;-2.60;99.90;;;;;;5014956;28;20244;-77
2021/12/14 01:39:09;;;;;;;4.27;3.87;;;-2.10;99.90;;;;;;5015934;28;20605;-71
2021/12/14 01:40:57;;;;;;;4.13;3.73;;;-2.40;99.90;;;;;;5022131;28;20192;-76
2021/12/14 01:43:39;;;;;;;4.43;3.73;;;-1.80;99.90;;;;;;5016049;28;20177;-72
2021/12/14 01:46:20;;;;;;;4.97;4.07;;;-2.30;99.90;;;;;;5016114;28;20649;-78
2021/12/14 01:48:47;;;;;;;4.27;3.40;;;-2.50;99.90;;;;;;5016041;28;20200;-74
2021/12/14 01:51:14;;;;;;;5.03;4.57;;;-2.00;99.90;;;;;;5016653;28;20177;-68
2021/12/14 01:53:43;;;;;;;5.00;4.43;;;-2.70;99.90;;;;;;5016045;28;20224;-71
2021/12/14 01:56:13;;;;;;;4.37;4.00;;;-2.70;99.90;;;;;;5015808;28;20197;-71
2021/12/14 01:58:48;;;;;;;5.70;4.63;;;-2.70;99.90;;;;;;5015771;28;20249;-81
2021/12/14 02:01:21;;;;;;;6.83;5.17;;;-2.90;99.90;;;;;;5015391;28;20247;-68
2021/12/14 02:04:00;;;;;;;7.07;5.43;;;-3.00;99.90;;;;;;5015818;28;20186;-69
2021/12/14 02:06:30;;;;;;;8.10;5.80;;;-3.90;99.90;;;;;;5014612;28;20261;-68
2021/12/14 02:09:10;;;;;;;6.37;5.00;;;-3.00;99.90;;;;;;5015762;28;20185;-69
2021/12/14 02:11:48;;;;;;;6.40;4.60;;;-3.30;99.90;;;;;;5026884;28;20491;-69
2021/12/14 02:14:15;;;;;;;5.93;5.33;;;-2.50;99.90;;;;;;5035365;28;20177;-69
2021/12/14 02:16:41;;;;;;;5.97;5.37;;;-2.40;99.90;;;;;;5037503;28;20204;-77
2021/12/14 02:19:13;;;;;;;7.17;6.47;;;-1.90;99.90;;;;;;5039298;28;20662;-70
2021/12/14 02:21:41;;;;;;;7.60;6.40;;;-1.90;99.90;;;;;;5039167;28;20173;-82
2021/12/14 02:24:08;;;;;;;6.30;5.70;;;-1.70;99.90;;;;;;5039189;28;20165;-69
2021/12/14 02:26:39;;;;;;;7.47;6.77;;;-2.00;99.90;;;;;;5039150;28;20184;-70
2021/12/14 02:29:08;;;;;;;8.87;6.57;;;-2.90;99.90;;;;;;5038178;28;20200;-71
2021/12/14 02:31:37;;;;;;;8.47;6.83;;;-3.50;99.90;;;;;;5038972;28;20171;-78
2021/12/14 02:34:05;;;;;;;9.70;7.40;;;-3.30;99.90;;;;;;5039096;28;20384;-76
2021/12/14 02:36:36;;;;;;;9.27;6.87;;;-3.30;99.90;;;;;;5038683;28;20217;-69
2021/12/14 02:39:09;;;;;;;9.27;6.97;;;-3.20;99.90;;;;;;5038888;28;20164;-72
2021/12/14 02:41:45;;;;;;;8.37;6.67;;;-2.20;99.90;;;;;;5037831;28;20464;-71
2021/12/14 02:44:11;;;;;;;9.63;7.07;;;-2.10;99.90;;;;;;5038505;28;20603;-82
2021/12/14 02:46:42;;;;;;;9.90;8.13;;;-2.50;99.90;;;;;;5037905;28;20173;-84
2021/12/14 02:49:13;;;;;;;9.23;7.83;;;-3.10;99.90;;;;;;5038626;28;20250;-82
2021/12/14 02:51:45;;;;;;;9.57;7.50;;;-3.60;99.90;;;;;;5038846;28;20520;-83
2021/12/14 02:54:16;;;;;;;9.67;8.00;;;-3.30;99.90;;;;;;5038659;28;20169;-83
2021/12/14 02:56:48;;;;;;;8.40;7.60;;;-3.30;99.90;;;;;;5038552;28;20582;-83
2021/12/14 02:59:26;;;;;;;8.57;7.63;;;-3.50;99.90;;;;;;5038084;28;20172;-83
2021/12/14 03:01:55;;;;;;;8.43;6.90;;;-3.20;99.90;;;;;;5038481;28;20187;-72
2021/12/14 03:04:20;;;;;;;9.43;8.53;;;-2.60;99.90;;;;;;5038337;28;20532;-83
2021/12/14 03:06:54;;;;;;;9.80;8.30;;;-2.60;99.90;;;;;;5038493;28;20211;-83
2021/12/14 03:09:55;;;;;;;10.37;8.07;;;-3.00;99.90;;;;;;5038411;28;20632;-82
2021/12/14 03:12:32;;;;;;;13.53;7.40;;;-3.10;99.90;;;;;;5037087;28;20187;-77
2021/12/14 03:15:20;;;;;;;10.07;7.50;;;-4.40;99.90;;;;;;5038122;28;20242;-76
2021/12/14 03:17:50;;;;;;;10.07;7.07;;;-3.70;99.90;;;;;;5038177;28;20272;-77
2021/12/14 03:20:23;;;;;;;10.63;9.07;;;-2.90;99.90;;;;;;5038060;28;20161;-82
2021/12/14 03:23:00;;;;;;;13.37;8.50;;;-3.30;99.90;;;;;;5038197;28;20169;-82
2021/12/14 03:25:27;;;;;;;11.03;8.00;;;-2.90;99.90;;;;;;5038098;28;20173;-84
2021/12/14 03:27:53;;;;;;;10.60;8.50;;;-3.10;99.90;;;;;;5036320;28;20558;-83
2021/12/14 03:30:22;;;;;;;11.13;8.77;;;-2.80;99.90;;;;;;5036944;28;20529;-79
2021/12/14 03:32:48;;;;;;;9.80;8.80;;;-1.10;99.90;;;;;;5037999;28;20180;-82
2021/12/14 03:35:17;;;;;;;13.03;9.40;;;-2.60;99.90;;;;;;5037638;28;20184;-82
2021/12/14 03:37:43;;;;;;;10.80;8.57;;;-2.10;99.90;;;;;;5037915;28;20225;-81
2021/12/14 03:40:10;;;;;;;9.93;8.10;;;-1.60;99.90;;;;;;5037652;28;20271;-81
2021/12/14 03:42:39;;;;;;;12.37;9.47;;;-2.00;99.90;;;;;;5036355;28;20209;-83
2021/12/14 03:45:15;;;;;;;16.93;9.90;;;-1.90;99.90;;;;;;5037557;28;20592;-79
2021/12/14 03:47:54;;;;;;;10.27;8.30;;;-2.40;99.90;;;;;;5037707;28;20364;-82
2021/12/14 03:50:28;;;;;;;10.20;8.37;;;-2.30;99.90;;;;;;5036377;28;20184;-83
2021/12/14 03:52:54;;;;;;;10.80;7.77;;;-2.00;99.90;;;;;;5037590;28;20175;-81
2021/12/14 03:55:27;;;;;;;9.27;8.00;;;-2.50;99.90;;;;;;5037393;28;20253;-70
2021/12/14 03:57:53;;;;;;;10.37;8.30;;;-2.60;99.90;;;;;;5037320;28;20232;-68
2021/12/14 04:00:29;;;;;;;8.23;6.57;;;-2.60;99.90;;;;;;5037314;28;20244;-69
2021/12/14 04:02:57;;;;;;;9.37;7.07;;;-2.50;99.90;;;;;;5037496;28;20199;-75
2021/12/14 04:05:24;;;;;;;9.23;6.77;;;-3.20;99.90;;;;;;5037198;28;20173;-67
2021/12/14 04:07:50;;;;;;;9.13;7.33;;;-3.40;99.90;;;;;;5037255;28;20195;-67
2021/12/14 04:10:29;;;;;;;12.53;7.97;;;-3.10;99.90;;;;;;5035973;28;20229;-68
2021/12/14 04:12:57;;;;;;;10.93;7.80;;;-3.40;99.90;;;;;;5036909;28;20172;-68
2021/12/14 04:15:23;;;;;;;9.07;8.10;;;-3.70;99.90;;;;;;5037010;28;20314;-70
2021/12/14 04:17:50;;;;;;;10.47;7.97;;;-3.00;99.90;;;;;;5036078;28;20508;-71
2021/12/14 04:20:26;;;;;;;10.50;6.63;;;-3.50;99.90;;;;;;5036810;28;20591;-72
2021/12/14 04:22:53;;;;;;;7.93;6.30;;;-3.80;99.90;;;;;;5037086;28;20512;-71
2021/12/14 04:25:29;;;;;;;8.97;7.90;;;-3.20;99.90;;;;;;5036528;28;20340;-69
2021/12/14 04:27:56;;;;;;;10.30;7.80;;;-3.40;99.90;;;;;;5036954;28;20179;-72
2021/12/14 04:30:26;;;;;;;10.87;7.90;;;-3.60;99.90;;;;;;5036833;28;20199;-67
2021/12/14 04:32:57;;;;;;;9.43;7.50;;;-2.90;99.90;;;;;;5036766;28;20165;-68
2021/12/14 04:35:23;;;;;;;10.23;7.50;;;-2.10;99.90;;;;;;5036568;28;20743;-71
2021/12/14 04:37:57;;;;;;;9.53;7.77;;;-2.20;99.90;;;;;;5036300;28;20196;-68
2021/12/14 04:52:01;;;;;;;11.17;8.07;;;-1.90;99.90;;;;;;5036673;28;20192;-82
2021/12/14 04:54:42;;;;;;;12.73;8.40;;;-2.10;99.90;;;;;;5036166;28;20705;-75
2021/12/14 04:57:19;;;;;;;16.03;10.97;;;-1.70;99.90;;;;;;5035348;28;20212;-75
2021/12/14 04:59:45;;;;;;;11.80;9.00;;;-2.20;99.90;;;;;;5036453;28;20199;-70
2021/12/14 05:02:20;;;;;;;10.67;8.27;;;-2.90;99.90;;;;;;5036117;28;20175;-68
2021/12/14 05:04:47;;;;;;;10.37;8.43;;;-2.90;99.90;;;;;;5036279;28;20172;-72
2021/12/14 05:10:21;;;;;;;12.27;10.03;;;-2.80;99.90;;;;;;5033773;28;20186;-71
2021/12/14 05:12:47;;;;;;;12.87;9.47;;;-2.10;99.90;;;;;;5035562;28;20200;-68
2021/12/14 05:15:16;;;;;;;15.43;11.20;;;-2.30;99.90;;;;;;5036004;28;20263;-68
2021/12/14 05:17:44;;;;;;;16.17;9.63;;;-1.90;99.90;;;;;;5035996;28;20196;-68
2021/12/14 05:20:12;;;;;;;14.27;9.73;;;-1.80;99.90;;;;;;5034877;28;20572;-70
2021/12/14 05:22:42;;;;;;;12.53;9.17;;;-2.40;99.90;;;;;;5035864;28;20478;-75
2021/12/14 05:25:13;;;;;;;10.67;9.20;;;-2.60;99.90;;;;;;5035531;28;20176;-69
2021/12/14 05:27:45;;;;;;;13.07;10.23;;;-2.60;99.90;;;;;;5035964;28;20180;-72
2021/12/14 05:30:21;;;;;;;13.53;9.70;;;-2.80;99.90;;;;;;5035887;28;20173;-70
2021/12/14 05:32:49;;;;;;;12.87;9.80;;;-2.90;99.90;;;;;;5036103;28;20168;-70
2021/12/14 05:35:18;;;;;;;15.27;10.00;;;-2.60;99.90;;;;;;5034827;28;20558;-76
2021/12/14 05:37:51;;;;;;;12.57;10.20;;;-3.20;99.90;;;;;;5036618;28;20208;-73
2021/12/14 05:43:12;;;;;;;15.87;10.67;;;-2.50;99.90;;;;;;5037270;28;20193;-81
2021/12/14 05:45:47;;;;;;;14.10;9.93;;;-2.40;99.90;;;;;;5045038;28;20584;-77
2021/12/14 05:48:19;;;;;;;12.13;9.17;;;-2.60;99.90;;;;;;5039951;28;20222;-79
2021/12/14 05:50:49;;;;;;;13.23;9.80;;;-2.30;99.90;;;;;;5038592;28;20180;-82
2021/12/14 05:53:38;;;;;;;12.67;9.17;;;-2.10;99.90;;;;;;5039472;28;20180;-83
2021/12/14 05:56:19;;;;;;;14.27;9.67;;;-2.30;99.90;;;;;;5039621;28;20264;-67
2021/12/14 05:58:45;;;;;;;12.47;8.50;;;-2.20;99.90;;;;;;5039789;28;20208;-72
2021/12/14 06:01:15;;;;;;;13.03;9.73;;;-2.20;99.90;;;;;;5038436;28;20176;-81
2021/12/14 06:03:50;;;;;;;12.40;9.17;;;-2.90;99.90;;;;;;5039862;28;20554;-74
2021/12/14 06:06:22;;;;;;;17.57;9.70;;;-3.00;99.90;;;;;;5039464;28;20160;-73
2021/12/14 06:08:48;;;;;;;13.00;11.07;;;-2.50;99.90;;;;;;5039357;28;20634;-75
2021/12/14 06:11:26;;;;;;;13.63;10.17;;;-2.70;99.90;;;;;;5038400;28;20181;-74
2021/12/14 06:13:52;;;;;;;13.67;9.87;;;-2.30;99.90;;;;;;5039636;28;20231;-74
2021/12/14 06:16:30;;;;;;;16.60;12.00;;;-2.10;99.90;;;;;;5039368;28;20173;-75
2021/12/14 06:19:14;;;;;;;18.70;13.00;;;-2.30;99.90;;;;;;5039555;28;20204;-73
2021/12/14 06:21:41;;;;;;;15.00;11.00;;;-3.00;99.90;;;;;;5038056;28;20180;-72
2021/12/14 06:24:09;;;;;;;16.70;11.43;;;-3.10;99.90;;;;;;5039467;28;20181;-72
2021/12/14 06:26:37;;;;;;;16.07;11.83;;;-2.70;99.90;;;;;;5039125;28;20182;-73
2021/12/14 06:29:12;;;;;;;17.23;12.83;;;-2.60;99.90;;;;;;5039469;28;20169;-73
2021/12/14 06:31:40;;;;;;;21.43;13.50;;;-2.00;99.90;;;;;;5038179;28;20176;-73
2021/12/14 06:34:23;;;;;;;21.77;14.47;;;-1.90;99.90;;;;;;5039074;28;20169;-68
2021/12/14 06:37:03;;;;;;;20.70;14.37;;;-1.90;99.90;;;;;;5037574;28;20192;-71
2021/12/14 06:39:30;;;;;;;21.83;14.33;;;-2.20;99.90;;;;;;5038895;28;20679;-81
2021/12/14 06:42:07;;;;;;;24.63;16.33;;;-3.00;99.90;;;;;;5039092;28;20165;-83
2021/12/14 06:44:33;;;;;;;26.33;15.83;;;-3.30;99.90;;;;;;5039031;28;20169;-84
2021/12/14 06:46:59;;;;;;;25.83;14.83;;;-2.80;99.90;;;;;;5039013;28;20630;-83
2021/12/14 06:49:25;;;;;;;26.53;17.33;;;-3.00;99.90;;;;;;5038587;28;20211;-82
2021/12/14 06:51:54;;;;;;;26.80;16.57;;;-2.20;99.90;;;;;;5038550;28;20632;-83
2021/12/14 06:54:24;;;;;;;25.90;16.13;;;-2.30;99.90;;;;;;5038742;28;20214;-76
2021/12/14 06:56:56;;;;;;;25.43;16.13;;;-1.80;99.90;;;;;;5030380;28;20176;-76
2021/12/14 06:59:23;;;;;;;25.07;16.10;;;-1.90;99.90;;;;;;5036015;28;20673;-83
2021/12/14 07:02:02;;;;;;;28.63;16.50;;;-1.90;99.90;;;;;;5026690;28;20288;-69
2021/12/14 07:04:33;;;;;;;26.83;16.03;;;-1.80;99.90;;;;;;5037434;28;20165;-69
2021/12/14 07:07:06;;;;;;;29.47;15.87;;;-1.70;99.90;;;;;;5037582;28;20161;-72
2021/12/14 07:09:45;;;;;;;32.27;15.97;;;-2.30;99.90;;;;;;5038071;28;20161;-67
2021/12/14 07:12:18;;;;;;;25.57;17.10;;;-2.50;99.90;;;;;;5037436;28;20242;-70
2021/12/14 07:15:03;;;;;;;28.37;16.50;;;-2.70;99.90;;;;;;5037757;28;20251;-71
2021/12/14 07:17:37;;;;;;;26.23;18.00;;;-2.30;99.90;;;;;;5035862;28;20557;-66
2021/12/14 07:20:18;;;;;;;32.20;19.70;;;-2.20;99.90;;;;;;5037371;28;20475;-68
2021/12/14 07:22:54;;;;;;;26.90;16.47;;;-1.80;99.90;;;;;;5036815;28;20160;-65
2021/12/14 07:25:33;;;;;;;27.43;16.50;;;-1.70;99.90;;;;;;5037383;28;20539;-66
2021/12/14 07:28:11;;;;;;;38.47;19.00;;;-2.50;99.90;;;;;;5037509;28;20176;-70
2021/12/14 07:30:41;;;;;;;26.70;16.60;;;-2.70;99.90;;;;;;5037468;28;20188;-72
2021/12/14 07:33:15;;;;;;;32.77;19.50;;;-2.30;99.90;;;;;;5036887;28;20169;-69
2021/12/14 07:35:59;;;;;;;30.70;19.27;;;-2.00;99.90;;;;;;5023896;28;20201;-64
2021/12/14 07:38:35;;;;;;;30.33;18.13;;;-3.30;99.90;;;;;;5030329;28;20196;-67
2021/12/14 07:41:16;;;;;;;31.43;17.50;;;-2.70;99.90;;;;;;5035585;28;20208;-68
2021/12/14 07:43:42;;;;;;;32.80;18.20;;;-2.30;99.90;;;;;;5037196;28;20161;-65
2021/12/14 07:46:18;;;;;;;32.10;19.10;;;-1.90;99.90;;;;;;5035794;28;20634;-69
2021/12/14 07:49:06;;;;;;;30.90;18.70;;;-2.10;99.90;;;;;;5036318;28;20180;-71
2021/12/14 07:51:36;;;;;;;26.90;15.83;;;-2.30;99.90;;;;;;5036917;28;20204;-70
2021/12/14 07:54:06;;;;;;;33.60;19.07;;;-2.20;99.90;;;;;;5035537;28;20189;-65
2021/12/14 07:56:47;;;;;;;28.40;18.43;;;-2.30;99.90;;;;;;5036406;28;20192;-68
2021/12/14 07:59:22;;;;;;;27.90;16.77;;;-2.00;99.90;;;;;;5036249;28;20180;-66
2021/12/14 08:01:50;;;;;;;30.83;16.97;;;-1.80;99.90;;;;;;5036635;28;20168;-66
2021/12/14 08:04:16;;;;;;;26.43;17.77;;;-1.50;99.90;;;;;;5036891;28;20272;-69
2021/12/14 08:06:48;;;;;;;36.40;19.87;;;-1.60;99.90;;;;;;5028163;28;20172;-71
2021/12/14 08:09:50;;;;;;;28.70;16.30;;;-1.70;99.90;;;;;;5036338;28;20481;-68
2021/12/14 08:12:40;;;;;;;34.40;19.70;;;-1.40;99.90;;;;;;5025033;28;20172;-70
2021/12/14 08:15:21;;;;;;;35.50;20.40;;;-0.20;99.90;;;;;;5027499;28;20196;-69
2021/12/14 08:17:58;;;;;;;27.43;16.53;;;-2.10;99.90;;;;;;5027206;28;20201;-67
2021/12/14 08:20:26;;;;;;;35.03;18.17;;;-1.80;99.90;;;;;;5032718;28;20483;-78
2021/12/14 08:22:54;;;;;;;30.77;20.30;;;-1.40;99.90;;;;;;5036395;28;20274;-65
2021/12/14 08:25:30;;;;;;;27.90;15.93;;;-1.70;99.90;;;;;;5036593;28;20169;-66
2021/12/14 08:28:06;;;;;;;27.00;16.43;;;-1.40;99.90;;;;;;5031711;28;20722;-65
2021/12/14 08:30:40;;;;;;;31.93;19.27;;;-1.90;99.90;;;;;;5035809;28;20164;-65
2021/12/14 08:33:21;;;;;;;32.57;19.50;;;-2.20;99.90;;;;;;5029875;28;20177;-65
2021/12/14 08:35:48;;;;;;;29.27;17.37;;;-2.10;99.90;;;;;;5020766;28;20196;-73
2021/12/14 08:38:17;;;;;;;28.33;17.10;;;-1.90;99.90;;;;;;5024346;28;20210;-67
2021/12/14 08:40:48;;;;;;;26.57;17.13;;;-1.20;99.90;;;;;;5034328;28;20173;-67
2021/12/14 08:43:27;;;;;;;26.83;17.93;;;-1.90;99.90;;;;;;5035587;28;20545;-70
2021/12/14 08:45:58;;;;;;;26.77;17.90;;;-1.80;99.90;;;;;;5034936;28;20154;-74
2021/12/14 08:48:30;;;;;;;28.90;17.53;;;-1.90;99.90;;;;;;5034115;28;20741;-70
2021/12/14 08:51:13;;;;;;;29.77;18.53;;;-2.60;99.90;;;;;;5031108;28;20251;-77
2021/12/14 08:53:45;;;;;;;25.60;18.30;;;-2.80;99.90;;;;;;5034822;28;20649;-68
2021/12/14 08:56:12;;;;;;;34.70;18.77;;;-3.10;99.90;;;;;;5034800;28;20169;-72
2021/12/14 08:58:40;;;;;;;22.53;16.27;;;-2.30;99.90;;;;;;5035475;28;20269;-66
2021/12/14 09:01:12;;;;;;;25.33;16.93;;;-2.80;99.90;;;;;;5034680;28;20192;-68
2021/12/14 09:03:45;;;;;;;27.53;17.23;;;-2.90;99.90;;;;;;5035502;28;20172;-70
2021/12/14 09:06:17;;;;;;;30.87;18.20;;;-2.80;99.90;;;;;;5023433;28;20228;-65
2021/12/14 09:08:48;;;;;;;25.83;16.80;;;-2.70;99.90;;;;;;5025747;28;20568;-68
2021/12/14 09:11:18;;;;;;;29.03;18.13;;;-2.60;99.90;;;;;;5035708;28;20169;-68
2021/12/14 09:13:47;;;;;;;27.30;16.50;;;-2.70;99.90;;;;;;5036007;28;20587;-65
2021/12/14 09:16:17;;;;;;;25.77;16.73;;;-2.60;99.90;;;;;;5034850;28;20176;-65
2021/12/14 09:18:47;;;;;;;24.60;16.50;;;-2.50;99.90;;;;;;5035269;28;20188;-68
2021/12/14 09:21:24;;;;;;;27.70;15.47;;;-3.00;99.90;;;;;;5035722;28;20161;-74
2021/12/14 09:23:55;;;;;;;24.80;16.87;;;-3.40;99.90;;;;;;5034742;28;20180;-66
2021/12/14 09:26:25;;;;;;;25.70;15.63;;;-3.20;99.90;;;;;;5033479;28;20177;-64
2021/12/14 09:28:51;;;;;;;22.63;15.77;;;-3.00;99.90;;;;;;5034646;28;20218;-71
2021/12/14 09:31:22;;;;;;;21.43;15.97;;;-3.40;99.90;;;;;;5034701;28;20483;-66
2021/12/14 09:33:52;;;;;;;26.43;16.57;;;-2.90;99.90;;;;;;5035418;28;20588;-70
2021/12/14 09:36:18;;;;;;;23.33;15.43;;;-3.30;99.90;;;;;;5024459;28;20246;-75
2021/12/14 09:38:55;;;;;;;24.27;17.10;;;-2.60;99.90;;;;;;5034392;28;20224;-71
2021/12/14 09:41:25;;;;;;;25.80;15.40;;;-4.00;99.90;;;;;;5034248;28;20503;-67
2021/12/14 09:43:51;;;;;;;22.57;14.53;;;-3.50;99.90;;;;;;5032897;28;20261;-71
2021/12/14 09:46:18;;;;;;;23.57;15.73;;;-3.50;99.90;;;;;;5034549;28;20170;-67
2021/12/14 09:48:48;;;;;;;32.17;18.87;;;-3.50;99.90;;;;;;5029920;28;20232;-67
2021/12/14 09:51:22;;;;;;;25.53;16.77;;;-3.60;99.90;;;;;;5034365;28;20194;-69
2021/12/14 09:53:52;;;;;;;24.40;17.67;;;-3.20;99.90;;;;;;5034902;28;20181;-68
2021/12/14 09:56:20;;;;;;;26.10;15.83;;;-3.60;99.90;;;;;;5034562;28;20451;-67
2021/12/14 09:58:58;;;;;;;21.97;15.87;;;-3.20;99.90;;;;;;5033894;28;20201;-68
2021/12/14 10:01:32;;;;;;;23.27;14.83;;;-3.30;99.90;;;;;;5033950;28;20175;-67
2021/12/14 10:04:03;;;;;;;21.93;15.00;;;-3.20;99.90;;;;;;5029253;28;20172;-67
2021/12/14 10:06:31;;;;;;;19.03;14.27;;;-3.80;99.90;;;;;;5026514;28;20203;-65
2021/12/14 10:09:04;;;;;;;23.83;15.43;;;-2.70;99.90;;;;;;5033121;28;20173;-65
2021/12/14 10:14:22;;;;;;;21.40;14.57;;;-3.30;99.90;;;;;;5033978;28;20173;-66
2021/12/14 10:16:49;;;;;;;23.63;15.23;;;-3.10;99.90;;;;;;5018556;28;20179;-75
2021/12/14 10:19:19;;;;;;;22.67;16.87;;;-3.60;99.90;;;;;;5014870;28;20562;-67
2021/12/14 10:21:54;;;;;;;22.63;16.63;;;-3.20;99.90;;;;;;5033865;28;20256;-67
2021/12/14 10:24:20;;;;;;;27.77;16.93;;;-3.40;99.90;;;;;;5033949;28;20182;-69
2021/12/14 10:26:55;;;;;;;23.33;15.70;;;-3.10;99.90;;;;;;5034196;28;20244;-67
2021/12/14 10:29:23;;;;;;;24.83;16.43;;;-3.10;99.90;;;;;;5033708;28;20675;-71
2021/12/14 10:31:59;;;;;;;27.63;16.97;;;-3.10;99.90;;;;;;5033612;28;20168;-68
2021/12/14 10:34:27;;;;;;;28.77;18.27;;;-1.30;99.90;;;;;;5026385;28;20204;-68
2021/12/14 10:37:08;;;;;;;26.13;17.03;;;-2.30;99.90;;;;;;5034504;28;20193;-68
2021/12/14 10:45:00;;;;;;;23.67;15.93;;;-2.30;99.90;;;;;;5038385;28;20221;-69
2021/12/14 10:47:29;;;;;;;26.13;15.13;;;-2.30;99.90;;;;;;5038080;28;20158;-68
2021/12/14 10:49:57;;;;;;;28.63;17.43;;;-2.10;99.90;;;;;;5036250;28;20584;-76
2021/12/14 10:52:27;;;;;;;23.80;16.30;;;-2.30;99.90;;;;;;5038222;28;20174;-67
2021/12/14 10:55:05;;;;;;;26.53;16.43;;;-2.10;99.90;;;;;;5038141;28;20244;-68
2021/12/14 10:57:33;;;;;;;22.67;15.37;;;-1.40;99.90;;;;;;5036767;28;20247;-81
2021/12/14 10:59:59;;;;;;;23.37;15.33;;;-1.50;99.90;;;;;;5039216;28;20158;-75
2021/12/14 11:02:27;;;;;;;31.57;16.77;;;-1.90;99.90;;;;;;5042520;28;20159;-81
2021/12/14 11:04:57;;;;;;;27.67;17.07;;;-2.30;99.90;;;;;;5037807;28;20171;-81
2021/12/14 11:07:23;;;;;;;24.50;16.37;;;-2.40;99.90;;;;;;5038224;28;20252;-79
2021/12/14 11:09:53;;;;;;;24.67;16.73;;;-2.60;99.90;;;;;;5033409;28;20508;-79
2021/12/14 11:12:32;;;;;;;29.63;17.03;;;-2.60;99.90;;;;;;5026022;28;20167;-72
2021/12/14 11:15:04;;;;;;;23.83;16.33;;;-2.10;99.90;;;;;;5028839;28;20190;-82
2021/12/14 11:20:27;;;;;;;30.40;19.80;;;-2.20;99.90;;;;;;5025294;28;20229;-80
2021/12/14 11:23:06;;;;;;;28.40;18.80;;;-2.40;99.90;;;;;;5018015;28;20252;-77
2021/12/14 11:25:54;;;;;;;26.93;16.63;;;-2.10;99.90;;;;;;5031966;28;20539;-67
2021/12/14 11:28:40;;;;;;;29.13;18.10;;;-1.80;99.90;;;;;;5023374;28;20182;-69
2021/12/14 11:31:16;;;;;;;27.37;17.00;;;-1.90;99.90;;;;;;5031940;28;20181;-69
2021/12/14 11:33:50;;;;;;;30.53;19.53;;;-2.50;99.90;;;;;;5037764;28;20194;-76
2021/12/14 11:36:18;;;;;;;23.83;17.50;;;-2.10;99.90;;;;;;5037118;28;20193;-69
2021/12/14 11:38:54;;;;;;;28.03;17.63;;;-1.70;99.90;;;;;;5036088;28;20208;-68
2021/12/14 11:41:44;;;;;;;22.60;15.83;;;-1.60;99.90;;;;;;5017157;28;20161;-68
2021/12/14 11:44:13;;;;;;;30.20;17.67;;;-2.20;99.90;;;;;;5021674;28;20190;-68
2021/12/14 11:46:56;;;;;;;23.33;16.07;;;-2.50;99.90;;;;;;5023657;28;20222;-68
2021/12/14 11:49:24;;;;;;;29.40;17.23;;;-2.40;99.90;;;;;;5013780;28;20179;-67
2021/12/14 11:51:52;;;;;;;28.50;17.40;;;-2.50;99.90;;;;;;5034949;28;20158;-72
2021/12/14 11:54:20;;;;;;;26.37;18.40;;;-3.90;99.90;;;;;;5028105;28;20536;-68
2021/12/14 11:56:48;;;;;;;27.50;19.90;;;-3.50;99.90;;;;;;5026512;28;20175;-68
2021/12/14 11:59:15;;;;;;;27.37;17.47;;;-3.60;99.90;;;;;;5027749;28;20226;-68
2021/12/14 12:01:53;;;;;;;24.43;17.23;;;-3.70;99.90;;;;;;5024760;28;20176;-68
2021/12/14 12:04:20;;;;;;;26.50;18.33;;;-3.80;99.90;;;;;;5025495;28;20206;-69
2021/12/14 12:09:35;;;;;;;27.63;17.73;;;-4.10;99.90;;;;;;5029108;28;20167;-68
2021/12/14 12:12:04;;;;;;;29.70;20.00;;;-3.30;99.90;;;;;;5029819;28;20515;-69
2021/12/14 12:14:52;;;;;;;26.60;17.93;;;-3.80;99.90;;;;;;5022903;28;20646;-68
2021/12/14 12:17:43;;;;;;;24.80;15.90;;;-3.60;99.90;;;;;;5034331;28;20195;-67
2021/12/14 12:20:29;;;;;;;26.07;17.70;;;-3.40;99.90;;;;;;5035953;28;20183;-72
2021/12/14 12:23:01;;;;;;;27.33;18.20;;;-3.30;99.90;;;;;;5035266;28;20194;-70
2021/12/14 12:25:42;;;;;;;20.83;16.50;;;-3.30;99.90;;;;;;5035225;28;20207;-69
2021/12/14 12:28:15;;;;;;;28.07;17.73;;;-2.90;99.90;;;;;;5036404;28;20175;-67
2021/12/14 12:31:19;;;;;;;24.83;17.20;;;-2.70;99.90;;;;;;5035532;28;20182;-67
2021/12/14 12:33:49;;;;;;;36.20;16.73;;;-2.60;99.90;;;;;;5036039;28;20186;-67
2021/12/14 12:36:35;;;;;;;29.63;19.80;;;-2.80;99.90;;;;;;5035421;28;20204;-69
2021/12/14 12:39:13;;;;;;;24.27;17.03;;;-2.80;99.90;;;;;;5035512;28;20198;-69
2021/12/14 12:41:47;;;;;;;27.87;17.73;;;-3.00;99.90;;;;;;5035247;28;20174;-68
2021/12/14 12:44:28;;;;;;;28.27;17.07;;;-2.60;99.90;;;;;;5028608;28;20166;-70
2021/12/14 12:47:00;;;;;;;25.93;15.33;;;-2.80;99.90;;;;;;5035907;28;20166;-68
2021/12/14 12:49:30;;;;;;;24.10;16.83;;;-2.80;99.90;;;;;;5035847;28;20179;-69
2021/12/14 12:52:06;;;;;;;31.47;16.90;;;-2.70;99.90;;;;;;5030574;28;20169;-69
2021/12/14 12:54:56;;;;;;;29.17;16.67;;;-2.60;99.90;;;;;;5035346;28;20171;-68
2021/12/14 12:57:34;;;;;;;22.13;16.17;;;-2.60;99.90;;;;;;5037529;28;20622;-73
2021/12/14 13:00:28;;;;;;;27.63;16.30;;;-2.50;99.90;;;;;;5034120;28;20215;-68
2021/12/14 13:03:25;;;;;;;23.90;17.13;;;-2.30;99.90;;;;;;5035742;28;20167;-69
2021/12/14 13:06:00;;;;;;;28.73;16.07;;;-2.60;99.90;;;;;;5037971;28;20196;-71
2021/12/14 13:08:40;;;;;;;28.43;17.33;;;-2.40;99.90;;;;;;5035316;28;20179;-73
2021/12/14 13:11:36;;;;;;;27.80;19.20;;;-2.50;99.90;;;;;;5035686;28;20163;-71
2021/12/14 13:14:07;;;;;;;28.10;17.57;;;-2.20;99.90;;;;;;5035298;28;20184;-74
2021/12/14 13:16:43;;;;;;;28.13;15.70;;;-2.30;99.90;;;;;;5035280;28;20982;-74
2021/12/14 13:19:17;;;;;;;22.47;17.23;;;-2.60;99.90;;;;;;5035755;28;20209;-71
2021/12/14 13:21:49;;;;;;;28.17;15.87;;;-2.70;99.90;;;;;;5034724;28;20163;-69
2021/12/14 13:24:16;;;;;;;23.73;16.27;;;-2.70;99.90;;;;;;5035758;28;20456;-70
2021/12/14 13:26:42;;;;;;;25.83;17.30;;;-3.10;99.90;;;;;;5034230;28;20183;-70
2021/12/14 13:29:11;;;;;;;26.27;16.23;;;-3.20;99.90;;;;;;5027343;28;20321;-72
2021/12/14 13:31:54;;;;;;;23.97;16.40;;;-2.30;99.90;;;;;;5022722;28;20596;-70
2021/12/14 13:34:29;;;;;;;26.53;17.67;;;-2.70;99.90;;;;;;5034479;28;20184;-71
2021/12/14 13:36:56;;;;;;;30.03;17.57;;;-2.60;99.90;;;;;;5033768;28;20245;-67
2021/12/14 13:39:27;;;;;;;29.03;18.30;;;-2.40;99.90;;;;;;5035131;28;20537;-75